Atlanticbeach, North Carolina
Current Conditions -  °F | °C
As of 3:58 PM on Tuesday 21 Oct 2014 (Local Time) from KMRH Reporting Station
Clear Clear  
Wind Chill: 23°   Ceiling: Unl
Heat Index: 23°   Visibility: 10mi
Dew Point: 16°   Wind: 12mph
Humidity: 66%   Direction: 210°SSW
Pressure: 29.84"   Gusts: NA
Location:  34.6984°N, 76.7775°W
Report Text: KMRH 211958Z AUTO 21010KT 10SM CLR 23/16 A2984 RMK AO2 SLP104 T02280161 TSNO
Loading
Personal Weather Stations






























Interactive Weather Map
Tropical Storm Tracking
New forecast layout! Learn more

10-Day Weather Forecast

Advertisements
Track Severe Weather on mobile